createdAt,value
2022-11-08T00:04:26.158Z,27.55
2022-11-08T00:09:26.135Z,27.06
2022-11-08T00:14:25.367Z,26.84
2022-11-08T00:19:27.556Z,27.29
2022-11-08T00:24:25.734Z,28.69
2022-11-08T00:29:23.907Z,27.83
2022-11-08T00:34:22.096Z,28.23
2022-11-08T00:39:22.277Z,28.76
2022-11-08T00:44:21.450Z,29.08
2022-11-08T00:49:20.615Z,28.49
2022-11-08T00:54:18.803Z,30.70
2022-11-08T00:59:17.980Z,29.33
2022-11-08T01:04:18.176Z,29.24
2022-11-08T01:09:17.389Z,30.12
2022-11-08T01:14:15.675Z,31.07
2022-11-08T01:19:15.864Z,31.78
2022-11-08T01:24:14.062Z,31.99
2022-11-08T01:29:13.258Z,32.81
2022-11-08T01:34:12.439Z,32.93
2022-11-08T01:39:13.617Z,33.34
2022-11-08T01:44:10.796Z,33.86
2022-11-08T01:49:11.996Z,34.17
2022-11-08T01:54:09.334Z,34.38
2022-11-08T01:59:08.677Z,35.50
2022-11-08T02:04:08.806Z,35.61
2022-11-08T02:09:07.143Z,36.02
2022-11-08T02:14:06.259Z,36.63
2022-11-08T02:19:06.619Z,36.65
2022-11-08T02:24:04.769Z,36.65
2022-11-08T02:29:03.910Z,36.77
2022-11-08T02:34:04.058Z,37.27
2022-11-08T02:39:03.220Z,37.67
2022-11-08T02:44:02.354Z,37.59
2022-11-08T02:49:00.721Z,38.01
2022-11-08T02:53:59.862Z,38.33
2022-11-08T02:59:01.157Z,37.74
2022-11-08T03:03:58.447Z,37.65
2022-11-08T03:08:59.752Z,36.60
2022-11-08T03:13:57.023Z,36.16
2022-11-08T03:18:55.329Z,35.16
2022-11-08T03:23:55.633Z,35.35
2022-11-08T03:28:57.971Z,34.54
2022-11-08T03:33:53.271Z,34.83
2022-11-08T03:38:53.581Z,34.94
2022-11-08T03:43:52.931Z,35.36
2022-11-08T03:48:52.246Z,35.57
2022-11-08T03:53:52.556Z,36.08
2022-11-08T03:58:50.857Z,35.48
2022-11-08T04:03:51.141Z,36.38
2022-11-08T04:08:49.576Z,36.79
2022-11-08T04:13:48.672Z,37.12
2022-11-08T04:18:49.982Z,37.52
2022-11-08T04:23:47.284Z,37.63
2022-11-08T04:28:46.625Z,37.23
2022-11-08T04:33:45.934Z,37.16
2022-11-08T04:38:45.238Z,37.60
2022-11-08T04:43:44.573Z,36.86
2022-11-08T04:48:43.770Z,35.83
2022-11-08T04:53:44.076Z,35.13
2022-11-08T04:58:42.193Z,35.51
2022-11-08T05:03:41.336Z,35.28
2022-11-08T05:08:40.622Z,34.04
2022-11-08T05:13:40.931Z,33.72
2022-11-08T05:18:41.743Z,33.51
2022-11-08T05:23:37.527Z,34.12
2022-11-08T05:28:39.834Z,34.56
2022-11-08T05:33:37.156Z,35.10
2022-11-08T05:38:36.470Z,35.41
2022-11-08T05:43:35.782Z,36.17
2022-11-08T05:48:37.115Z,36.84
2022-11-08T05:53:34.432Z,37.04
2022-11-08T05:58:34.764Z,37.06
2022-11-08T06:03:35.112Z,36.86
2022-11-08T06:08:33.424Z,37.88
2022-11-08T06:13:33.300Z,37.21
2022-11-08T06:18:32.017Z,36.98
2022-11-08T06:23:30.357Z,35.61
2022-11-08T06:28:29.468Z,32.46
2022-11-08T06:33:29.696Z,30.04
2022-11-08T06:38:28.992Z,29.17
2022-11-08T06:43:27.732Z,29.68
2022-11-08T06:48:32.381Z,30.55
2022-11-08T06:53:25.763Z,30.55
2022-11-08T06:58:25.080Z,30.27
2022-11-08T07:03:25.387Z,29.98
2022-11-08T07:08:24.375Z,30.08
2022-11-08T07:13:22.997Z,29.80
2022-11-08T07:18:24.346Z,31.79
2022-11-08T07:23:21.849Z,31.11
2022-11-08T07:28:23.905Z,32.41
2022-11-08T07:33:21.375Z,29.82
2022-11-08T07:38:19.320Z,30.84
2022-11-08T07:43:18.435Z,30.05
2022-11-08T07:48:16.759Z,30.87
2022-11-08T07:53:17.381Z,31.38
2022-11-08T07:58:16.309Z,32.10
2022-11-08T08:03:15.654Z,31.09
2022-11-08T08:08:15.616Z,32.40
2022-11-08T08:13:15.142Z,30.93
2022-11-08T08:18:14.252Z,30.35
2022-11-08T08:23:12.542Z,30.46
2022-11-08T08:28:12.852Z,30.28
2022-11-08T08:38:10.356Z,31.79
2022-11-08T08:43:10.708Z,32.21
2022-11-08T08:48:09.852Z,31.59
2022-11-08T08:53:08.193Z,32.58
2022-11-08T08:58:07.330Z,32.41
2022-11-08T09:03:06.601Z,33.21
2022-11-08T09:08:06.961Z,33.93
2022-11-08T09:13:06.135Z,34.23
2022-11-08T09:18:04.469Z,36.38
2022-11-08T09:23:04.668Z,35.96
2022-11-08T09:28:03.815Z,36.87
2022-11-08T09:33:03.174Z,37.50
2022-11-08T09:38:01.044Z,36.08
2022-11-08T09:43:01.371Z,35.51
2022-11-08T09:48:04.810Z,33.76
2022-11-08T09:52:59.844Z,32.02
2022-11-08T09:57:59.166Z,31.51
2022-11-08T10:02:59.470Z,33.42
2022-11-08T10:07:56.812Z,33.33
2022-11-08T10:12:56.124Z,33.42
2022-11-08T10:17:56.453Z,33.45
2022-11-08T10:22:54.847Z,33.36
2022-11-08T10:27:53.775Z,34.16
2022-11-08T10:32:52.368Z,34.68
2022-11-08T10:37:53.338Z,35.91
2022-11-08T10:42:51.654Z,35.61
2022-11-08T10:47:50.992Z,36.13
2022-11-08T10:52:51.153Z,36.85
2022-11-08T10:57:50.263Z,37.27
2022-11-08T11:02:49.650Z,37.27
2022-11-08T11:07:49.816Z,37.07
2022-11-08T11:12:47.128Z,37.90
2022-11-08T11:17:46.088Z,37.79
2022-11-08T11:22:45.268Z,37.55
2022-11-08T11:27:45.499Z,36.21
2022-11-08T11:32:43.582Z,34.66
2022-11-08T11:37:42.740Z,34.93
2022-11-08T11:42:46.272Z,34.21
2022-11-08T11:47:41.329Z,33.81
2022-11-08T11:52:41.679Z,33.81
2022-11-08T11:57:39.963Z,33.20
2022-11-08T12:02:39.261Z,32.92
2022-11-08T12:07:40.599Z,34.03
2022-11-08T12:12:37.893Z,35.06
2022-11-08T12:17:37.233Z,34.78
2022-11-08T12:22:37.391Z,35.28
2022-11-08T12:27:35.534Z,35.58
2022-11-08T12:32:34.649Z,36.10
2022-11-08T12:37:33.985Z,36.29
2022-11-08T12:42:33.301Z,36.51
2022-11-08T12:47:34.621Z,37.11
2022-11-08T12:52:32.930Z,36.73
2022-11-08T12:57:31.310Z,36.75
2022-11-08T13:02:30.407Z,36.11
2022-11-08T13:07:31.724Z,34.80
2022-11-08T13:12:29.023Z,34.78
2022-11-08T13:17:28.331Z,34.76
2022-11-08T13:22:27.649Z,34.55
2022-11-08T13:27:26.951Z,34.13
2022-11-08T13:32:26.250Z,33.72
2022-11-08T13:37:26.603Z,33.91
2022-11-08T13:42:24.837Z,33.61
2022-11-08T13:47:23.950Z,33.51
2022-11-08T13:52:23.265Z,33.83
2022-11-08T13:57:23.618Z,34.36
2022-11-08T14:02:22.725Z,34.36
2022-11-08T14:07:24.950Z,35.68
2022-11-08T14:12:21.380Z,35.18
2022-11-08T14:17:19.705Z,35.49
2022-11-08T14:22:20.045Z,35.39
2022-11-08T14:27:18.223Z,36.41
2022-11-08T14:32:18.509Z,36.91
2022-11-08T14:37:17.479Z,36.73
2022-11-08T14:42:15.794Z,36.63
2022-11-08T14:47:18.276Z,36.83
2022-11-08T14:52:13.667Z,35.80
2022-11-08T14:57:14.663Z,35.48
2022-11-08T15:02:13.974Z,34.86
2022-11-08T15:07:13.492Z,34.03
2022-11-08T15:12:11.774Z,34.01
2022-11-08T15:17:10.730Z,34.33
2022-11-08T15:22:10.027Z,34.43
2022-11-08T15:27:10.356Z,35.24
2022-11-08T15:32:08.963Z,35.68
2022-11-08T15:37:11.082Z,36.18
2022-11-08T15:42:08.096Z,36.19
2022-11-08T15:47:06.404Z,36.49
2022-11-08T15:52:05.737Z,36.41
2022-11-08T15:57:06.951Z,36.91
2022-11-08T16:02:04.685Z,37.03
2022-11-08T16:07:03.574Z,37.55
2022-11-08T16:12:04.748Z,38.37
2022-11-08T16:17:00.093Z,38.59
2022-11-08T16:22:02.527Z,38.90
2022-11-08T16:27:01.465Z,39.23
2022-11-08T16:32:00.660Z,39.11
2022-11-08T16:36:59.233Z,38.49
2022-11-08T16:41:59.376Z,37.13
2022-11-08T16:46:59.181Z,36.29
2022-11-08T16:51:56.624Z,36.10
2022-11-08T16:57:20.591Z,36.49
2022-11-08T17:01:54.885Z,36.40
2022-11-08T17:06:54.541Z,36.91
2022-11-08T17:11:54.447Z,36.61
2022-11-08T17:16:52.884Z,36.71
2022-11-08T17:21:51.984Z,36.81
2022-11-08T17:26:53.226Z,37.35
2022-11-08T17:31:51.692Z,37.55
2022-11-08T17:36:49.669Z,37.88
2022-11-08T17:41:49.333Z,38.60
2022-11-08T17:46:48.631Z,38.72
2022-11-08T17:51:47.929Z,39.66
2022-11-08T17:56:52.022Z,39.97
2022-11-08T18:01:46.589Z,39.76
2022-11-08T18:06:46.707Z,39.86
2022-11-08T18:11:43.996Z,39.64
2022-11-08T18:16:45.095Z,39.97
2022-11-08T18:21:44.373Z,40.06
2022-11-08T18:26:43.687Z,37.77
2022-11-08T18:31:44.018Z,37.15
2022-11-08T18:36:41.840Z,37.05
2022-11-08T18:41:47.356Z,37.25
2022-11-08T18:46:43.155Z,37.15
2022-11-08T18:51:38.937Z,36.73
2022-11-08T18:56:41.231Z,37.15
2022-11-08T19:01:37.644Z,37.57
2022-11-08T19:06:41.543Z,37.68
2022-11-08T19:11:36.229Z,38.00
2022-11-08T19:16:36.390Z,38.31
2022-11-08T19:21:34.694Z,38.82
2022-11-08T19:26:34.089Z,38.72
2022-11-08T19:31:33.343Z,39.23
2022-11-08T19:36:32.490Z,38.67
2022-11-08T19:41:33.288Z,39.65
2022-11-08T19:46:31.578Z,36.54
2022-11-08T19:51:30.327Z,33.93
2022-11-08T19:56:57.718Z,32.99
2022-11-08T20:01:28.697Z,31.52
2022-11-08T20:06:29.882Z,30.37
2022-11-08T20:11:27.063Z,29.65
2022-11-08T20:16:25.849Z,28.93
2022-11-08T20:21:25.485Z,28.51
2022-11-08T20:26:27.651Z,28.19
2022-11-08T20:31:23.638Z,28.50
2022-11-08T20:36:24.735Z,28.59
2022-11-08T20:41:21.361Z,27.99
2022-11-08T20:46:22.193Z,27.37
2022-11-08T20:51:20.922Z,28.09
2022-11-08T20:56:23.031Z,28.28
2022-11-08T21:01:19.354Z,27.76
2022-11-08T21:06:22.945Z,27.66
2022-11-08T21:11:18.496Z,28.17
2022-11-08T21:16:38.607Z,28.06
2022-11-08T21:21:15.857Z,25.60
2022-11-08T21:26:15.280Z,35.68
2022-11-08T21:31:15.301Z,37.81
2022-11-08T21:36:13.430Z,37.85
2022-11-08T21:41:13.597Z,37.59
2022-11-08T21:46:11.732Z,38.44
2022-11-08T21:51:11.896Z,38.54
2022-11-08T21:56:11.070Z,37.76
2022-11-08T22:01:09.302Z,38.32
2022-11-08T22:06:07.575Z,38.44
